Aztec, NM (87410)

9:16 AM MDT on September 04, 2015 (GMT -0600)
Aztec, NM 87410 | | Change Station
CLOSE
Current Station
Personal Weather Station
Location: Aztec, NM
Elevation: 5682 ft
Nearby Weather Stations

Elev 5682 ft 36.82 °N, 107.99 °W | Updated 1 minute ago

Mostly Cloudy
Mostly Cloudy
58.3 °F
Feels Like 58.3 °F
N
1.1
Wind Variable Wind from NW

Today
High -- | Low -- °F
--% Chance of Precip.
Yesterday
High -- | Low -- °F
Precip. -- in
6:45 AM 7:36 PM
Waning Gibbous, 58% visible
Pressure 29.94 in
Visibility 10.0 miles
Clouds Few 3800 ft
Mostly Cloudy 9500 ft
Overcast 12000 ft
Dew Point 49 °F
Humidity 70%
Rainfall 0.00 in
Snow Depth Not available.
UV 1 out of 12
Pollen 6.70 out of 12
Air Quality Not available.
Flu Activity Not available.
METAR KFMN 041453Z 06005KT 10SM FEW038 BKN095 OVC120 18/11 A3011 RMK AO2 RAE42 SLP138 P0001 60001 T01780111 51012
Pressure 29.94 in
Visibility 10.0 miles
Clouds Few 3800 ft
Mostly Cloudy 9500 ft
Overcast 12000 ft
Dew Point 49 °F
Humidity 70%
Rainfall 0.00 in
Snow Depth Not available.
UV 1 out of 12
Pollen 6.70 out of 12
Air Quality Not available.
Flu Activity Not available.
METAR KFMN 041453Z 06005KT 10SM FEW038 BKN095 OVC120 18/11 A3011 RMK AO2 RAE42 SLP138 P0001 60001 T01780111 51012

10-Day Weather Forecast

×

Almanac

Astronomy

Sep. 04, 2015 Rise Set
Actual Time
Civil Twilight
Nautical Twilight
Astronomical Twilight
Moon
Length of Visible Light
Length of Day
Tomorrow will be .
, % of the Moon is Illuminated

Today's Extremes

State Highs State Lows

Community

WunderPhotos

Upload Photos

1,852,190 photos uploaded!

WunderBlogs® & News

Nearby

Air Quality

  Air Quality AQ Index Pollutant
Not available.

Snow Depth

Station Depth Elevation

Earthquake Activity

City Distance Mag. Time & Date
Minimum magnitude displayed is 2.5.

Coastal Water Temperatures

Place Temperature

Stations

Nearby Weather Stations

Station Location Temp. Windchill Dew Point Humidity Wind Precip. Elev Updated Type